CMA CGM Balzac — DIHN — position and weather

sailwx.info

Track history (hours):
 
Tides and Currents Weather Stations Pressure Air Temp Water Temp Dewpoint Dewpoint Depression Visibility Wind Speed Wind Dir Waves Ship Positions

CMA CGM Balzac

Last reported at 2015-Jan-30 21:00 UTC. Time now 2015-Jan-31 03:55 UTC.
Position N 36°12' W 007°54'.

Length 300.3 m; beam 40.3 m; draft 14 m.

Type: Ship (hazmat cat D). MMSI: 211378810.

Wind from 280 at 30 knots

Barometer 1015.1 mb
Air temperature 15.5 ° C
Dewpoint 13.2 ° C
Water temperature 18.0 ° C

Date/timePositionNaut miles runAvg speedWind from/ knotsBaromVisibWave heightAir tempDewpointWater temp
2015-Jan-30 21:00N 36°12' W 007°54'12114.1 280 / 301015.1 15.513.218.0
2015-Jan-30 12:25N 37°33' W 009°46'3115.1
2015-Jan-30 10:21N 38°03' W 009°55'1215.1
2015-Jan-30 09:33N 38°15' W 009°59'1515.2
2015-Jan-30 08:33N 38°30' W 010°03'1615.4
2015-Jan-30 07:31N 38°46' W 010°07'1515.1
2015-Jan-30 06:31N 39°01' W 010°06'9514.6
2015-Jan-30 00:00N 40°36' W 010°06'4214.0 290 / 331017.0 5.4 14.012.916.0
2015-Jan-29 21:00N 41°18' W 010°06'4214.0 280 / 301015.9 2.2 14.313.015.0
2015-Jan-29 18:00N 42°00' W 010°06'33916.1 280 / 391014.2 2.2 6.014.312.314.0
2015-Jan-28 21:00N 47°12' W 007°00'4916.2 290 / 461014.8 5.4 11.0 5.114.0
2015-Jan-28 18:00N 47°54' W 006°24'4715.5 310 / 441015.1 2.2 5.010.0 4.613.0
2015-Jan-28 15:00N 48°36' W 005°54'4715.5 310 / 411014.0 2.2 6.010.0 4.413.0
2015-Jan-28 12:00N 49°06' W 005°00'9614.8 300 / 501011.7 2.2 6.011.8 5.914.0
2015-Jan-28 05:30N 49°57' W 002°55'7513.6
2015-Jan-28 00:00N 49°48' W 001°00'710.2 240 / 271022.9 5.4 8.4 6.011.0
2015-Jan-27 23:15N 49°44' W 000°50'1115.8
2015-Jan-27 22:33N 49°40' W 000°34'1616.3
2015-Jan-27 21:33N 49°32' W 000°12'1211.6
2015-Jan-27 20:33N 49°29' E 000°05'3 3.0
2015-Jan-27 19:31N 49°29' E 000°10'0 0.0
2015-Jan-27 18:31N 49°29' E 000°10'0 0.0
2015-Jan-27 17:34N 49°29' E 000°10'0 0.0
2015-Jan-27 16:33N 49°29' E 000°10'0 0.0
2015-Jan-27 15:33N 49°29' E 000°10'0 0.0
2015-Jan-27 14:32N 49°29' E 000°10'0 0.0
2015-Jan-27 13:32N 49°29' E 000°10'0 0.0
2015-Jan-27 12:31N 49°29' E 000°10'0 0.0
2015-Jan-27 11:31N 49°29' E 000°10'0 0.0
2015-Jan-27 10:30N 49°29' E 000°10'0 0.0
2015-Jan-27 09:33N 49°29' E 000°10'0 0.0
2015-Jan-27 08:33N 49°29' E 000°10'0 0.0
2015-Jan-27 07:32N 49°29' E 000°10'0 0.0
2015-Jan-27 06:32N 49°29' E 000°10'0 0.0
2015-Jan-27 05:31N 49°29' E 000°10'0 0.0
2015-Jan-27 04:31N 49°29' E 000°10'0 0.0
2015-Jan-27 03:33N 49°29' E 000°10'0 0.0
2015-Jan-27 02:33N 49°29' E 000°10'0 0.0
2015-Jan-27 01:33N 49°29' E 000°10'0 0.0
2015-Jan-27 00:32N 49°29' E 000°10'0 0.0
2015-Jan-26 23:32N 49°29' E 000°10'0 0.0
2015-Jan-26 22:31N 49°29' E 000°10'0 0.0
2015-Jan-26 21:31N 49°29' E 000°10'0 0.0
2015-Jan-26 20:33N 49°29' E 000°10'4 4.2
2015-Jan-26 19:34N 49°29' E 000°04'10 9.7
2015-Jan-26 18:33N 49°33' W 000°10'4 7.4
2015-Jan-26 18:00N 49°36' W 000°06'510.9 330 / 281026.2 5.4 9.2 3.612.0
2015-Jan-26 17:33N 49°40' W 000°10'4613.4
2015-Jan-26 14:05N 50°26' W 000°04'711.9
2015-Jan-26 13:29N 50°29' E 000°07'1112.2
2015-Jan-26 12:33N 50°32' E 000°24'5 8.3
2015-Jan-26 12:00N 50°30' E 000°30'921.0 290 / 301021.6 5.4 3.011.2 8.411.0
2015-Jan-26 11:33N 50°36' E 000°40'1312.5
2015-Jan-26 10:34N 50°44' E 000°57'1413.6
2015-Jan-26 09:34N 50°51' E 001°14'4 6.4
2015-Jan-26 09:00N 50°54' E 001°18'1126.5 250 / 291021.1 2.2 2.0 9.2 8.911.0
2015-Jan-26 08:34N 51°03' E 001°30'1312.8
2015-Jan-26 07:33N 51°03' E 001°50'1312.7
2015-Jan-26 06:32N 51°01' E 002°11'0 0.1
2015-Jan-26 03:30N 51°00' E 002°11'0 0.0
2015-Jan-26 02:05N 51°00' E 002°11'0 0.0
2015-Jan-26 01:26N 51°00' E 002°11'0 0.0
2015-Jan-25 23:22N 51°00' E 002°11'0 0.0
2015-Jan-25 22:15N 51°00' E 002°11'1 0.7
2015-Jan-25 21:31N 51°01' E 002°11'7 7.3
2015-Jan-25 20:33N 51°02' E 001°60'1010.4
2015-Jan-25 19:33N 51°05' E 001°44'1211.8
2015-Jan-25 18:33N 51°16' E 001°50'1211.5
2015-Jan-25 17:33N 51°25' E 002°03'1212.0
2015-Jan-25 16:33N 51°21' E 002°21'1010.3
2015-Jan-25 15:33N 51°23' E 002°38'1111.1
2015-Jan-25 14:34N 51°25' E 002°55'1515.3
2015-Jan-25 13:34N 51°24' E 003°20'1211.7
2015-Jan-25 12:33N 51°26' E 003°38'1211.8
2015-Jan-25 11:33N 51°23' E 003°56'1010.2
2015-Jan-25 10:33N 51°24' E 004°12'7 6.7
2015-Jan-25 09:33N 51°17' E 004°16'0 0.0
2015-Jan-25 08:32N 51°17' E 004°16'0 0.0
2015-Jan-25 07:26N 51°17' E 004°16'0 0.0
2015-Jan-25 06:31N 51°17' E 004°16'0 0.0
2015-Jan-25 05:25N 51°17' E 004°16'0 0.0
2015-Jan-25 04:33N 51°17' E 004°16'0 0.0
2015-Jan-25 03:29N 51°17' E 004°16'0 0.0
2015-Jan-25 02:30N 51°17' E 004°16'0 0.0
2015-Jan-25 01:24N 51°17' E 004°16'0 0.0
2015-Jan-25 00:29N 51°17' E 004°16'0 0.0
2015-Jan-24 23:32N 51°17' E 004°16'0 0.0
2015-Jan-24 22:32N 51°17' E 004°16'0 0.0
2015-Jan-24 21:28N 51°17' E 004°16'0 0.0
2015-Jan-24 20:31N 51°17' E 004°16'0 0.0
2015-Jan-24 19:30N 51°17' E 004°16'0 0.0
2015-Jan-24 18:33N 51°17' E 004°16'0 0.0
2015-Jan-24 17:33N 51°17' E 004°16'0 0.2
2015-Jan-24 16:34N 51°17' E 004°16'6 6.4
2015-Jan-24 15:34N 51°24' E 004°12'1010.2
2015-Jan-24 14:33N 51°22' E 003°56'1313.1
2015-Jan-24 13:33N 51°26' E 003°36'1514.6
2015-Jan-24 12:33N 51°24' E 003°13'813.9
2015-Jan-24 12:00N 51°24' E 003°00'919.6 330 / 271022.8 5.4 2.5 7.8 0.5 9.0
2015-Jan-24 11:31N 51°32' E 003°07'5719.2
2015-Jan-24 08:31N 52°28' E 003°27'1819.0
2015-Jan-24 07:34N 52°45' E 003°41'3718.4
2015-Jan-24 05:33N 53°11' E 004°23'1818.2
2015-Jan-24 04:33N 53°28' E 004°35'1918.6
2015-Jan-24 03:34N 53°34' E 005°05'1818.4
2015-Jan-24 02:34N 53°40' E 005°34'1818.1
2015-Jan-24 01:33N 53°46' E 006°03'3517.0
2015-Jan-23 23:28N 53°56' E 007°01'1313.2
2015-Jan-23 22:31N 53°60' E 007°21'6 5.5
2015-Jan-23 21:22N 54°02' E 007°31'0 0.1
2015-Jan-23 20:33N 54°02' E 007°31'6 6.5
2015-Jan-23 19:33N 54°02' E 007°42'1312.5
2015-Jan-23 18:33N 54°01' E 008°03'1616.1
2015-Jan-23 17:33N 53°58' E 008°30'1515.2
2015-Jan-23 16:33N 53°50' E 008°52'1111.4
2015-Jan-23 15:34N 53°53' E 009°11'1110.8
2015-Jan-23 14:34N 53°45' E 009°24'1110.5
2015-Jan-23 13:33N 53°37' E 009°34'9 9.3
2015-Jan-23 12:34N 53°33' E 009°49'4 3.5
2015-Jan-23 11:33N 53°32' E 009°55'0 0.0
2015-Jan-23 10:32N 53°32' E 009°55'0 0.0
2015-Jan-23 09:33N 53°32' E 009°55'0 0.0
2015-Jan-23 08:32N 53°32' E 009°55'0 0.0
2015-Jan-23 07:31N 53°32' E 009°55'0 0.0
2015-Jan-23 06:31N 53°32' E 009°55'0 0.0
2015-Jan-23 05:30N 53°32' E 009°55'0 0.0
2015-Jan-23 04:27N 53°32' E 009°55'0 0.0
2015-Jan-23 03:29N 53°32' E 009°55'0 0.0
2015-Jan-23 02:29N 53°32' E 009°55'0 0.0
2015-Jan-23 01:31N 53°32' E 009°55'0 0.0
2015-Jan-23 00:31N 53°32' E 009°55'0 0.0
2015-Jan-22 23:33N 53°32' E 009°55'0 0.0
2015-Jan-22 22:33N 53°32' E 009°55'0 0.0
2015-Jan-22 21:32N 53°32' E 009°55'0 0.0
2015-Jan-22 20:32N 53°32' E 009°55'0 0.0
2015-Jan-22 19:31N 53°32' E 009°55'0 0.0
2015-Jan-22 18:28N 53°32' E 009°55'0 0.0
2015-Jan-22 17:33N 53°32' E 009°55'0 0.0
2015-Jan-22 16:33N 53°32' E 009°55'0 0.0
2015-Jan-22 15:33N 53°32' E 009°55'0 0.0
2015-Jan-22 14:32N 53°32' E 009°55'0 0.0
2015-Jan-22 13:29N 53°32' E 009°55'0 0.0
2015-Jan-22 12:32N 53°32' E 009°55'0 0.0
2015-Jan-22 11:28N 53°32' E 009°55'0 0.0
2015-Jan-22 10:28N 53°32' E 009°55'0 0.0
2015-Jan-22 09:31N 53°32' E 009°55'0 0.0
2015-Jan-22 08:33N 53°32' E 009°55'0 0.0
2015-Jan-22 07:32N 53°32' E 009°55'0 0.0
2015-Jan-22 06:29N 53°32' E 009°55'0 0.0
2015-Jan-22 05:31N 53°32' E 009°55'0 0.0
2015-Jan-22 04:31N 53°32' E 009°55'0 0.0
2015-Jan-22 03:31N 53°32' E 009°55'0 0.0
2015-Jan-22 02:33N 53°32' E 009°55'0 0.0
2015-Jan-22 01:33N 53°32' E 009°55'0 0.0
2015-Jan-22 00:33N 53°32' E 009°55'4 4.2
2015-Jan-21 23:33N 53°33' E 009°48'811.3
2015-Jan-21 22:50N 53°36' E 009°35'112.6
2015-Jan-21 22:46N 53°37' E 009°34'211.3
2015-Jan-21 22:33N 53°39' E 009°31'1211.8
2015-Jan-21 21:34N 53°49' E 009°22'1010.2
2015-Jan-21 20:33N 53°53' E 009°06'10 9.8
2015-Jan-21 19:33N 53°50' E 008°49'1111.0
2015-Jan-21 18:34N 53°58' E 008°36'1414.4
2015-Jan-21 17:33N 53°60' E 008°11'1716.6
2015-Jan-21 16:33N 53°57' E 007°43'1818.3
2015-Jan-21 15:33N 53°53' E 007°13'1818.0
2015-Jan-21 14:33N 53°49' E 006°43'1818.2
2015-Jan-21 13:33N 53°44' E 006°14'1919.2
2015-Jan-21 12:33N 53°37' E 005°43'1918.9
2015-Jan-21 11:33N 53°31' E 005°14'1919.5
2015-Jan-21 10:33N 53°24' E 004°43'2020.1
2015-Jan-21 09:33N 53°06' E 004°27'2019.5
2015-Jan-21 08:33N 52°49' E 004°11'1919.0
2015-Jan-21 07:33N 52°33' E 003°56'1918.8
2015-Jan-21 06:34N 52°14' E 003°53'1514.9
2015-Jan-21 05:33N 51°60' E 004°01'4 3.5
2015-Jan-21 04:34N 51°57' E 004°05'1 1.2
2015-Jan-21 03:32N 51°57' E 004°03'0 0.0
2015-Jan-21 02:32N 51°57' E 004°03'0 0.0
2015-Jan-21 01:31N 51°57' E 004°03'0 0.0
2015-Jan-21 00:31N 51°57' E 004°03'0 0.0
2015-Jan-20 23:33N 51°57' E 004°03'0 0.0
2015-Jan-20 22:33N 51°57' E 004°03'0 0.0
2015-Jan-20 21:32N 51°57' E 004°03'  
Track history (hours):
 
Tides and Currents Weather Stations Pressure Air Temp Water Temp Dewpoint Dewpoint Depression Visibility Wind Speed Wind Dir Waves Ship Positions

CMA CGM Balzac

Last reported at 2015-Jan-30 21:00 UTC. Time now 2015-Jan-31 03:55 UTC.
Position N 36°12' W 007°54'.

Length 300.3 m; beam 40.3 m; draft 14 m.

Type: Ship (hazmat cat D). MMSI: 211378810.

Wind from 280 at 30 knots

Barometer 1015.1 mb
Air temperature 15.5 ° C
Dewpoint 13.2 ° C
Water temperature 18.0 ° C

Date/timePositionNaut miles runAvg speedWind from/ knotsBaromVisibWave heightAir tempDewpointWater temp
2015-Jan-30 21:00N 36°12' W 007°54'12114.1 280 / 301015.1 15.513.218.0
2015-Jan-30 12:25N 37°33' W 009°46'3115.1
2015-Jan-30 10:21N 38°03' W 009°55'1215.1
2015-Jan-30 09:33N 38°15' W 009°59'1515.2
2015-Jan-30 08:33N 38°30' W 010°03'1615.4
2015-Jan-30 07:31N 38°46' W 010°07'1515.1
2015-Jan-30 06:31N 39°01' W 010°06'9514.6
2015-Jan-30 00:00N 40°36' W 010°06'4214.0 290 / 331017.0 5.4 14.012.916.0
2015-Jan-29 21:00N 41°18' W 010°06'4214.0 280 / 301015.9 2.2 14.313.015.0
2015-Jan-29 18:00N 42°00' W 010°06'33916.1 280 / 391014.2 2.2 6.014.312.314.0
2015-Jan-28 21:00N 47°12' W 007°00'4916.2 290 / 461014.8 5.4 11.0 5.114.0
2015-Jan-28 18:00N 47°54' W 006°24'4715.5 310 / 441015.1 2.2 5.010.0 4.613.0
2015-Jan-28 15:00N 48°36' W 005°54'4715.5 310 / 411014.0 2.2 6.010.0 4.413.0
2015-Jan-28 12:00N 49°06' W 005°00'9614.8 300 / 501011.7 2.2 6.011.8 5.914.0
2015-Jan-28 05:30N 49°57' W 002°55'7513.6
2015-Jan-28 00:00N 49°48' W 001°00'710.2 240 / 271022.9 5.4 8.4 6.011.0
2015-Jan-27 23:15N 49°44' W 000°50'1115.8
2015-Jan-27 22:33N 49°40' W 000°34'1616.3
2015-Jan-27 21:33N 49°32' W 000°12'1211.6
2015-Jan-27 20:33N 49°29' E 000°05'3 3.0
2015-Jan-27 19:31N 49°29' E 000°10'0 0.0
2015-Jan-27 18:31N 49°29' E 000°10'0 0.0
2015-Jan-27 17:34N 49°29' E 000°10'0 0.0
2015-Jan-27 16:33N 49°29' E 000°10'0 0.0
2015-Jan-27 15:33N 49°29' E 000°10'0 0.0
2015-Jan-27 14:32N 49°29' E 000°10'0 0.0
2015-Jan-27 13:32N 49°29' E 000°10'0 0.0
2015-Jan-27 12:31N 49°29' E 000°10'0 0.0
2015-Jan-27 11:31N 49°29' E 000°10'0 0.0
2015-Jan-27 10:30N 49°29' E 000°10'0 0.0
2015-Jan-27 09:33N 49°29' E 000°10'0 0.0
2015-Jan-27 08:33N 49°29' E 000°10'0 0.0
2015-Jan-27 07:32N 49°29' E 000°10'0 0.0
2015-Jan-27 06:32N 49°29' E 000°10'0 0.0
2015-Jan-27 05:31N 49°29' E 000°10'0 0.0
2015-Jan-27 04:31N 49°29' E 000°10'0 0.0
2015-Jan-27 03:33N 49°29' E 000°10'0 0.0
2015-Jan-27 02:33N 49°29' E 000°10'0 0.0
2015-Jan-27 01:33N 49°29' E 000°10'0 0.0
2015-Jan-27 00:32N 49°29' E 000°10'0 0.0
2015-Jan-26 23:32N 49°29' E 000°10'0 0.0
2015-Jan-26 22:31N 49°29' E 000°10'0 0.0
2015-Jan-26 21:31N 49°29' E 000°10'0 0.0
2015-Jan-26 20:33N 49°29' E 000°10'4 4.2
2015-Jan-26 19:34N 49°29' E 000°04'10 9.7
2015-Jan-26 18:33N 49°33' W 000°10'4 7.4
2015-Jan-26 18:00N 49°36' W 000°06'510.9 330 / 281026.2 5.4 9.2 3.612.0
2015-Jan-26 17:33N 49°40' W 000°10'4613.4
2015-Jan-26 14:05N 50°26' W 000°04'711.9
2015-Jan-26 13:29N 50°29' E 000°07'1112.2
2015-Jan-26 12:33N 50°32' E 000°24'5 8.3
2015-Jan-26 12:00N 50°30' E 000°30'921.0 290 / 301021.6 5.4 3.011.2 8.411.0
2015-Jan-26 11:33N 50°36' E 000°40'1312.5
2015-Jan-26 10:34N 50°44' E 000°57'1413.6
2015-Jan-26 09:34N 50°51' E 001°14'4 6.4
2015-Jan-26 09:00N 50°54' E 001°18'1126.5 250 / 291021.1 2.2 2.0 9.2 8.911.0
2015-Jan-26 08:34N 51°03' E 001°30'1312.8
2015-Jan-26 07:33N 51°03' E 001°50'1312.7
2015-Jan-26 06:32N 51°01' E 002°11'0 0.1
2015-Jan-26 03:30N 51°00' E 002°11'0 0.0
2015-Jan-26 02:05N 51°00' E 002°11'0 0.0
2015-Jan-26 01:26N 51°00' E 002°11'0 0.0
2015-Jan-25 23:22N 51°00' E 002°11'0 0.0
2015-Jan-25 22:15N 51°00' E 002°11'1 0.7
2015-Jan-25 21:31N 51°01' E 002°11'7 7.3
2015-Jan-25 20:33N 51°02' E 001°60'1010.4
2015-Jan-25 19:33N 51°05' E 001°44'1211.8
2015-Jan-25 18:33N 51°16' E 001°50'1211.5
2015-Jan-25 17:33N 51°25' E 002°03'1212.0
2015-Jan-25 16:33N 51°21' E 002°21'1010.3
2015-Jan-25 15:33N 51°23' E 002°38'1111.1
2015-Jan-25 14:34N 51°25' E 002°55'1515.3
2015-Jan-25 13:34N 51°24' E 003°20'1211.7
2015-Jan-25 12:33N 51°26' E 003°38'1211.8
2015-Jan-25 11:33N 51°23' E 003°56'1010.2
2015-Jan-25 10:33N 51°24' E 004°12'7 6.7
2015-Jan-25 09:33N 51°17' E 004°16'0 0.0
2015-Jan-25 08:32N 51°17' E 004°16'0 0.0
2015-Jan-25 07:26N 51°17' E 004°16'0 0.0
2015-Jan-25 06:31N 51°17' E 004°16'0 0.0
2015-Jan-25 05:25N 51°17' E 004°16'0 0.0
2015-Jan-25 04:33N 51°17' E 004°16'0 0.0
2015-Jan-25 03:29N 51°17' E 004°16'0 0.0
2015-Jan-25 02:30N 51°17' E 004°16'0 0.0
2015-Jan-25 01:24N 51°17' E 004°16'0 0.0
2015-Jan-25 00:29N 51°17' E 004°16'0 0.0
2015-Jan-24 23:32N 51°17' E 004°16'0 0.0
2015-Jan-24 22:32N 51°17' E 004°16'0 0.0
2015-Jan-24 21:28N 51°17' E 004°16'0 0.0
2015-Jan-24 20:31N 51°17' E 004°16'0 0.0
2015-Jan-24 19:30N 51°17' E 004°16'0 0.0
2015-Jan-24 18:33N 51°17' E 004°16'0 0.0
2015-Jan-24 17:33N 51°17' E 004°16'0 0.2
2015-Jan-24 16:34N 51°17' E 004°16'6 6.4
2015-Jan-24 15:34N 51°24' E 004°12'1010.2
2015-Jan-24 14:33N 51°22' E 003°56'1313.1
2015-Jan-24 13:33N 51°26' E 003°36'1514.6
2015-Jan-24 12:33N 51°24' E 003°13'813.9
2015-Jan-24 12:00N 51°24' E 003°00'919.6 330 / 271022.8 5.4 2.5 7.8 0.5 9.0
2015-Jan-24 11:31N 51°32' E 003°07'5719.2
2015-Jan-24 08:31N 52°28' E 003°27'1819.0
2015-Jan-24 07:34N 52°45' E 003°41'3718.4
2015-Jan-24 05:33N 53°11' E 004°23'1818.2
2015-Jan-24 04:33N 53°28' E 004°35'1918.6
2015-Jan-24 03:34N 53°34' E 005°05'1818.4
2015-Jan-24 02:34N 53°40' E 005°34'1818.1
2015-Jan-24 01:33N 53°46' E 006°03'3517.0
2015-Jan-23 23:28N 53°56' E 007°01'1313.2
2015-Jan-23 22:31N 53°60' E 007°21'6 5.5
2015-Jan-23 21:22N 54°02' E 007°31'0 0.1
2015-Jan-23 20:33N 54°02' E 007°31'6 6.5
2015-Jan-23 19:33N 54°02' E 007°42'1312.5
2015-Jan-23 18:33N 54°01' E 008°03'1616.1
2015-Jan-23 17:33N 53°58' E 008°30'1515.2
2015-Jan-23 16:33N 53°50' E 008°52'1111.4
2015-Jan-23 15:34N 53°53' E 009°11'1110.8
2015-Jan-23 14:34N 53°45' E 009°24'1110.5
2015-Jan-23 13:33N 53°37' E 009°34'9 9.3
2015-Jan-23 12:34N 53°33' E 009°49'4 3.5
2015-Jan-23 11:33N 53°32' E 009°55'0 0.0
2015-Jan-23 10:32N 53°32' E 009°55'0 0.0
2015-Jan-23 09:33N 53°32' E 009°55'0 0.0
2015-Jan-23 08:32N 53°32' E 009°55'0 0.0
2015-Jan-23 07:31N 53°32' E 009°55'0 0.0
2015-Jan-23 06:31N 53°32' E 009°55'0 0.0
2015-Jan-23 05:30N 53°32' E 009°55'0 0.0
2015-Jan-23 04:27N 53°32' E 009°55'0 0.0
2015-Jan-23 03:29N 53°32' E 009°55'0 0.0
2015-Jan-23 02:29N 53°32' E 009°55'0 0.0
2015-Jan-23 01:31N 53°32' E 009°55'0 0.0
2015-Jan-23 00:31N 53°32' E 009°55'0 0.0
2015-Jan-22 23:33N 53°32' E 009°55'0 0.0
2015-Jan-22 22:33N 53°32' E 009°55'0 0.0
2015-Jan-22 21:32N 53°32' E 009°55'0 0.0
2015-Jan-22 20:32N 53°32' E 009°55'0 0.0
2015-Jan-22 19:31N 53°32' E 009°55'0 0.0
2015-Jan-22 18:28N 53°32' E 009°55'0 0.0
2015-Jan-22 17:33N 53°32' E 009°55'0 0.0
2015-Jan-22 16:33N 53°32' E 009°55'0 0.0
2015-Jan-22 15:33N 53°32' E 009°55'0 0.0
2015-Jan-22 14:32N 53°32' E 009°55'0 0.0
2015-Jan-22 13:29N 53°32' E 009°55'0 0.0
2015-Jan-22 12:32N 53°32' E 009°55'0 0.0
2015-Jan-22 11:28N 53°32' E 009°55'0 0.0
2015-Jan-22 10:28N 53°32' E 009°55'0 0.0
2015-Jan-22 09:31N 53°32' E 009°55'0 0.0
2015-Jan-22 08:33N 53°32' E 009°55'0 0.0
2015-Jan-22 07:32N 53°32' E 009°55'0 0.0
2015-Jan-22 06:29N 53°32' E 009°55'0 0.0
2015-Jan-22 05:31N 53°32' E 009°55'0 0.0
2015-Jan-22 04:31N 53°32' E 009°55'0 0.0
2015-Jan-22 03:31N 53°32' E 009°55'0 0.0
2015-Jan-22 02:33N 53°32' E 009°55'0 0.0
2015-Jan-22 01:33N 53°32' E 009°55'0 0.0
2015-Jan-22 00:33N 53°32' E 009°55'4 4.2
2015-Jan-21 23:33N 53°33' E 009°48'811.3
2015-Jan-21 22:50N 53°36' E 009°35'112.6
2015-Jan-21 22:46N 53°37' E 009°34'211.3
2015-Jan-21 22:33N 53°39' E 009°31'1211.8
2015-Jan-21 21:34N 53°49' E 009°22'1010.2
2015-Jan-21 20:33N 53°53' E 009°06'10 9.8
2015-Jan-21 19:33N 53°50' E 008°49'1111.0
2015-Jan-21 18:34N 53°58' E 008°36'1414.4
2015-Jan-21 17:33N 53°60' E 008°11'1716.6
2015-Jan-21 16:33N 53°57' E 007°43'1818.3
2015-Jan-21 15:33N 53°53' E 007°13'1818.0
2015-Jan-21 14:33N 53°49' E 006°43'1818.2
2015-Jan-21 13:33N 53°44' E 006°14'1919.2
2015-Jan-21 12:33N 53°37' E 005°43'1918.9
2015-Jan-21 11:33N 53°31' E 005°14'1919.5
2015-Jan-21 10:33N 53°24' E 004°43'2020.1
2015-Jan-21 09:33N 53°06' E 004°27'2019.5
2015-Jan-21 08:33N 52°49' E 004°11'1919.0
2015-Jan-21 07:33N 52°33' E 003°56'1918.8
2015-Jan-21 06:34N 52°14' E 003°53'1514.9
2015-Jan-21 05:33N 51°60' E 004°01'4 3.5
2015-Jan-21 04:34N 51°57' E 004°05'1 1.2
2015-Jan-21 03:32N 51°57' E 004°03'0 0.0
2015-Jan-21 02:32N 51°57' E 004°03'0 0.0
2015-Jan-21 01:31N 51°57' E 004°03'0 0.0
2015-Jan-21 00:31N 51°57' E 004°03'0 0.0
2015-Jan-20 23:33N 51°57' E 004°03'0 0.0
2015-Jan-20 22:33N 51°57' E 004°03'0 0.0
2015-Jan-20 21:32N 51°57' E 004°03'  

Dump ship's entire track history